createdAt,value
2018-12-19T00:01:17.116Z,-0.70
2018-12-19T00:03:44.617Z,-0.70
2018-12-19T00:06:12.103Z,-0.60
2018-12-19T00:08:39.799Z,-0.60
2018-12-19T00:11:07.260Z,-0.50
2018-12-19T00:13:34.745Z,-0.40
2018-12-19T00:16:02.307Z,-0.30
2018-12-19T00:18:29.806Z,-0.40
2018-12-19T00:20:57.288Z,-0.50
2018-12-19T00:23:24.793Z,-0.60
2018-12-19T00:25:52.248Z,-0.60
2018-12-19T00:28:20.014Z,-0.70
2018-12-19T00:30:47.465Z,-0.70
2018-12-19T00:33:14.962Z,-0.80
2018-12-19T00:35:42.464Z,-0.80
2018-12-19T00:38:09.998Z,-0.80
2018-12-19T00:40:37.491Z,-0.70
2018-12-19T00:43:04.998Z,-0.70
2018-12-19T00:45:32.526Z,-0.70
2018-12-19T00:47:59.944Z,-0.70
2018-12-19T00:50:27.562Z,-0.70
2018-12-19T00:52:55.081Z,-0.70
2018-12-19T00:55:22.564Z,-0.80
2018-12-19T00:57:50.012Z,-0.90
2018-12-19T01:00:17.531Z,-1.00
2018-12-19T01:02:45.035Z,-1.00
2018-12-19T01:05:12.538Z,-1.10
2018-12-19T01:07:40.038Z,-1.00
2018-12-19T01:10:07.512Z,-1.00
2018-12-19T01:12:35.001Z,-0.90
2018-12-19T01:15:02.468Z,-0.90
2018-12-19T01:17:29.946Z,-0.90
2018-12-19T01:19:57.373Z,-0.80
2018-12-19T01:22:24.863Z,-0.90
2018-12-19T01:24:52.409Z,-0.80
2018-12-19T01:27:19.914Z,-0.80
2018-12-19T01:29:47.898Z,-0.80
2018-12-19T01:32:15.378Z,-0.80
2018-12-19T01:34:42.837Z,-0.80
2018-12-19T01:37:10.644Z,-0.80
2018-12-19T01:39:38.105Z,-0.80
2018-12-19T01:42:05.730Z,-0.80
2018-12-19T01:44:33.534Z,-0.80
2018-12-19T01:47:01.017Z,-0.80
2018-12-19T01:49:28.490Z,-0.70
2018-12-19T01:51:56.093Z,-0.80
2018-12-19T01:54:23.529Z,-0.80
2018-12-19T01:56:50.982Z,-0.80
2018-12-19T01:59:18.513Z,-0.90
2018-12-19T02:01:45.986Z,-0.90
2018-12-19T02:04:13.806Z,-0.90
2018-12-19T02:06:41.287Z,-1.00
2018-12-19T02:09:08.750Z,-1.00
2018-12-19T02:11:36.223Z,-1.00
2018-12-19T02:14:03.879Z,-1.00
2018-12-19T02:16:31.384Z,-1.00
2018-12-19T02:18:58.828Z,-1.10
2018-12-19T02:21:26.529Z,-1.10
2018-12-19T02:23:54.079Z,-1.20
2018-12-19T02:26:21.508Z,-1.20
2018-12-19T02:28:49.019Z,-1.30
2018-12-19T02:31:16.488Z,-1.30
2018-12-19T02:33:43.965Z,-1.40
2018-12-19T02:36:11.446Z,-1.50
2018-12-19T02:38:39.007Z,-1.50
2018-12-19T02:41:06.466Z,-1.50
2018-12-19T02:43:33.972Z,-1.60
2018-12-19T02:46:01.471Z,-1.50
2018-12-19T02:48:29.027Z,-1.60
2018-12-19T02:50:56.716Z,-1.50
2018-12-19T02:53:24.209Z,-1.40
2018-12-19T02:55:51.800Z,-1.40
2018-12-19T02:58:19.289Z,-1.40
2018-12-19T03:00:46.783Z,-1.50
2018-12-19T03:03:14.216Z,-1.40
2018-12-19T03:05:41.750Z,-1.50
2018-12-19T03:08:09.193Z,-1.50
2018-12-19T03:10:36.671Z,-1.50
2018-12-19T03:13:04.223Z,-1.50
2018-12-19T03:15:31.722Z,-1.50
2018-12-19T03:17:59.207Z,-1.50
2018-12-19T03:20:26.749Z,-1.40
2018-12-19T03:22:54.304Z,-1.40
2018-12-19T03:25:22.090Z,-1.30
2018-12-19T03:27:49.554Z,-1.30
2018-12-19T03:30:17.155Z,-1.20
2018-12-19T03:32:44.640Z,-1.10
2018-12-19T03:35:12.336Z,-1.10
2018-12-19T03:37:39.788Z,-1.10
2018-12-19T03:40:07.415Z,-1.10
2018-12-19T03:42:34.877Z,-1.00
2018-12-19T03:45:02.363Z,-1.00
2018-12-19T03:47:29.846Z,-1.10
2018-12-19T03:49:57.476Z,-1.00
2018-12-19T03:52:24.919Z,-1.10
2018-12-19T03:54:52.501Z,-1.10
2018-12-19T03:57:20.362Z,-1.20
2018-12-19T03:59:47.839Z,-1.20
2018-12-19T04:02:15.342Z,-1.30
2018-12-19T04:04:43.017Z,-1.30
2018-12-19T04:07:10.581Z,-1.30
2018-12-19T04:09:38.080Z,-1.40
2018-12-19T04:12:05.574Z,-1.30
2018-12-19T04:14:33.208Z,-1.30
2018-12-19T04:17:00.698Z,-1.20
2018-12-19T04:19:28.194Z,-1.20
2018-12-19T04:21:55.702Z,-1.20
2018-12-19T04:24:23.229Z,-1.10
2018-12-19T04:26:50.719Z,-1.10
2018-12-19T04:29:18.157Z,-1.10
2018-12-19T04:31:45.604Z,-1.00
2018-12-19T04:34:13.129Z,-1.00
2018-12-19T04:36:40.635Z,-1.00
2018-12-19T04:39:08.075Z,-1.00
2018-12-19T04:41:35.594Z,-0.90
2018-12-19T04:44:03.131Z,-1.00
2018-12-19T04:46:30.587Z,-1.00
2018-12-19T04:48:58.332Z,-1.00
2018-12-19T04:51:25.801Z,-1.00
2018-12-19T04:53:53.271Z,-1.00
2018-12-19T04:56:20.756Z,-1.00
2018-12-19T04:58:48.186Z,-1.00
2018-12-19T05:01:15.677Z,-1.00
2018-12-19T05:03:43.155Z,-0.90
2018-12-19T05:06:10.602Z,-0.90
2018-12-19T05:08:38.666Z,-0.90
2018-12-19T05:11:06.164Z,-0.80
2018-12-19T05:13:33.621Z,-0.80
2018-12-19T05:16:01.072Z,-0.80
2018-12-19T05:18:28.576Z,-0.80
2018-12-19T05:20:56.073Z,-0.80
2018-12-19T05:23:23.513Z,-0.70
2018-12-19T05:25:51.079Z,-0.70
2018-12-19T05:28:18.541Z,-0.70
2018-12-19T05:30:46.017Z,-0.70
2018-12-19T05:33:13.499Z,-0.70
2018-12-19T05:35:42.659Z,-0.70
2018-12-19T05:38:10.153Z,-0.70
2018-12-19T05:40:37.625Z,-0.70
2018-12-19T05:43:05.104Z,-0.70
2018-12-19T05:45:32.640Z,-0.70
2018-12-19T05:48:00.176Z,-0.70
2018-12-19T05:50:27.995Z,-0.60
2018-12-19T05:52:55.495Z,-0.60
2018-12-19T05:55:22.998Z,-0.50
2018-12-19T05:57:50.463Z,-0.50
2018-12-19T06:00:17.958Z,-0.40
2018-12-19T06:02:45.470Z,-0.40
2018-12-19T06:05:12.997Z,-0.30
2018-12-19T06:07:40.433Z,-0.40
2018-12-19T06:10:08.113Z,-0.40
2018-12-19T06:12:35.536Z,-0.40
2018-12-19T06:15:03.588Z,-0.40
2018-12-19T06:17:31.098Z,-0.40
2018-12-19T06:19:58.573Z,-0.40
2018-12-19T06:22:26.021Z,-0.40
2018-12-19T06:24:53.508Z,-0.40
2018-12-19T06:27:20.971Z,-0.30
2018-12-19T06:29:48.513Z,-0.30
2018-12-19T06:32:16.031Z,-0.40
2018-12-19T06:34:47.661Z,-0.40
2018-12-19T06:37:15.886Z,-0.30
2018-12-19T06:39:43.394Z,-0.30
2018-12-19T06:42:10.897Z,-0.30
2018-12-19T06:44:38.356Z,-0.30
2018-12-19T06:47:05.813Z,-0.30
2018-12-19T06:49:33.301Z,-0.30
2018-12-19T06:52:01.816Z,-0.20
2018-12-19T06:54:29.337Z,-0.20
2018-12-19T06:56:56.839Z,-0.20
2018-12-19T06:59:24.820Z,-0.20
2018-12-19T07:01:52.352Z,-0.20
2018-12-19T07:04:19.881Z,-0.10
2018-12-19T07:06:47.411Z,-0.20
2018-12-19T07:09:14.966Z,-0.10
2018-12-19T07:11:42.429Z,-0.10
2018-12-19T07:14:10.021Z,-0.10
2018-12-19T07:16:43.307Z,-0.10
2018-12-19T07:19:06.988Z,-0.10
2018-12-19T07:21:34.484Z,0.00
2018-12-19T07:24:02.002Z,0.00
2018-12-19T07:26:29.504Z,0.00
2018-12-19T07:28:57.025Z,0.00
2018-12-19T07:31:24.531Z,0.00
2018-12-19T07:33:51.937Z,0.00
2018-12-19T07:36:19.439Z,0.00
2018-12-19T07:38:46.985Z,0.10
2018-12-19T07:41:14.480Z,0.10
2018-12-19T07:43:41.982Z,0.10
2018-12-19T07:46:09.406Z,0.20
2018-12-19T07:48:36.888Z,0.10
2018-12-19T07:51:04.363Z,0.10
2018-12-19T07:53:31.889Z,0.10
2018-12-19T07:56:00.131Z,0.10
2018-12-19T07:58:27.610Z,0.10
2018-12-19T08:00:55.122Z,0.10
2018-12-19T08:03:22.650Z,0.10
2018-12-19T08:05:50.181Z,0.20
2018-12-19T08:08:17.685Z,0.20
2018-12-19T08:10:45.172Z,0.20
2018-12-19T08:13:12.641Z,0.20
2018-12-19T08:15:40.106Z,0.30
2018-12-19T08:18:07.540Z,0.30
2018-12-19T08:20:35.025Z,0.30
2018-12-19T08:23:02.482Z,0.30
2018-12-19T08:25:29.973Z,0.40
2018-12-19T08:27:57.476Z,0.40
2018-12-19T08:30:24.988Z,0.40
2018-12-19T08:32:52.523Z,0.40
2018-12-19T08:35:20.041Z,0.40
2018-12-19T08:37:47.525Z,0.40
2018-12-19T08:40:14.960Z,0.40
2018-12-19T08:42:42.459Z,0.40
2018-12-19T08:45:09.973Z,0.50
2018-12-19T08:47:37.520Z,0.50
2018-12-19T08:50:07.308Z,0.50
2018-12-19T08:52:34.856Z,0.50
2018-12-19T08:55:02.325Z,0.50
2018-12-19T08:57:29.831Z,0.60
2018-12-19T08:59:57.262Z,0.60
2018-12-19T09:02:24.813Z,0.50
2018-12-19T09:04:52.280Z,0.50
2018-12-19T09:07:19.783Z,0.60
2018-12-19T09:09:47.236Z,0.70
2018-12-19T09:12:14.755Z,0.70
2018-12-19T09:14:42.192Z,0.80
2018-12-19T09:17:10.368Z,0.90
2018-12-19T09:19:38.017Z,0.90
2018-12-19T09:22:05.570Z,1.10
2018-12-19T09:24:33.073Z,1.10
2018-12-19T09:27:00.543Z,1.20
2018-12-19T09:29:27.976Z,1.30
2018-12-19T09:31:55.478Z,1.30
2018-12-19T09:34:22.953Z,1.30
2018-12-19T09:36:50.404Z,1.40
2018-12-19T09:39:17.869Z,1.40
2018-12-19T09:41:45.304Z,1.50
2018-12-19T09:44:12.761Z,1.50
2018-12-19T09:46:41.048Z,1.50
2018-12-19T09:49:12.357Z,1.50
2018-12-19T09:51:38.354Z,1.60
2018-12-19T09:54:05.817Z,1.60
2018-12-19T09:56:33.362Z,1.60
2018-12-19T09:59:00.770Z,1.60
2018-12-19T10:01:28.302Z,1.60
2018-12-19T10:03:55.897Z,1.70
2018-12-19T10:06:23.385Z,1.70
2018-12-19T10:08:50.845Z,1.70
2018-12-19T10:11:18.854Z,1.70
2018-12-19T10:13:46.485Z,1.70
2018-12-19T10:16:13.896Z,1.60
2018-12-19T10:18:41.455Z,1.70
2018-12-19T10:21:08.940Z,1.80
2018-12-19T10:23:36.421Z,1.70
2018-12-19T10:26:09.489Z,1.80
2018-12-19T10:28:36.948Z,1.80
2018-12-19T10:31:04.418Z,1.70
2018-12-19T10:33:31.900Z,1.70
2018-12-19T10:35:59.322Z,1.70
2018-12-19T10:38:26.756Z,1.70
2018-12-19T10:40:54.232Z,1.70
2018-12-19T10:43:21.806Z,1.70
2018-12-19T10:45:49.239Z,1.70
2018-12-19T10:48:16.699Z,1.70
2018-12-19T10:50:44.177Z,1.70
2018-12-19T10:53:11.664Z,1.70
2018-12-19T10:55:39.115Z,1.60
2018-12-19T10:58:06.542Z,1.60
2018-12-19T11:00:40.947Z,1.50
2018-12-19T11:03:08.363Z,1.50
2018-12-19T11:05:35.797Z,1.60
2018-12-19T11:08:03.321Z,1.60
2018-12-19T11:10:30.751Z,1.70
2018-12-19T11:12:58.214Z,1.70
2018-12-19T11:15:25.710Z,1.80
2018-12-19T11:17:53.197Z,1.80
2018-12-19T11:20:20.646Z,1.80
2018-12-19T11:22:48.156Z,1.80
2018-12-19T11:25:16.544Z,1.80
2018-12-19T11:27:44.001Z,1.70
2018-12-19T11:30:12.294Z,1.70
2018-12-19T11:32:39.761Z,1.70
2018-12-19T11:35:07.271Z,1.70
2018-12-19T11:37:34.770Z,1.70
2018-12-19T11:40:02.373Z,1.70
2018-12-19T11:42:30.525Z,1.70
2018-12-19T11:44:58.027Z,1.80
2018-12-19T11:47:25.493Z,1.80
2018-12-19T11:49:52.966Z,1.80
2018-12-19T11:52:20.521Z,1.80
2018-12-19T11:54:48.298Z,1.80
2018-12-19T11:57:15.879Z,1.80
2018-12-19T11:59:43.544Z,1.80
2018-12-19T12:02:10.973Z,1.80
2018-12-19T12:04:38.538Z,1.90
2018-12-19T12:07:06.164Z,1.90
2018-12-19T12:09:33.613Z,1.90
2018-12-19T12:12:01.036Z,1.80
2018-12-19T12:14:28.659Z,1.80
2018-12-19T12:16:56.146Z,1.80
2018-12-19T12:19:23.608Z,1.80
2018-12-19T12:21:51.072Z,1.90
2018-12-19T12:24:18.563Z,1.90
2018-12-19T12:26:46.005Z,1.90
2018-12-19T12:29:13.504Z,1.90
2018-12-19T12:31:40.940Z,1.90
2018-12-19T12:34:08.414Z,1.90
2018-12-19T12:36:35.888Z,1.90
2018-12-19T12:39:05.882Z,1.90
2018-12-19T12:41:33.334Z,1.90
2018-12-19T12:44:00.791Z,1.80
2018-12-19T12:46:28.260Z,1.80
2018-12-19T12:48:55.759Z,1.80
2018-12-19T12:51:23.224Z,1.80
2018-12-19T12:53:50.702Z,1.80
2018-12-19T12:56:18.145Z,1.80
2018-12-19T12:58:45.592Z,1.80
2018-12-19T13:01:13.176Z,1.90
2018-12-19T13:03:40.669Z,1.90
2018-12-19T13:06:08.128Z,1.90
2018-12-19T13:08:35.578Z,1.90
2018-12-19T13:11:03.124Z,1.90
2018-12-19T13:13:30.564Z,1.90
2018-12-19T13:15:58.050Z,2.00
2018-12-19T13:18:25.490Z,2.00
2018-12-19T13:20:52.969Z,2.00
2018-12-19T13:23:20.429Z,1.90
2018-12-19T13:25:47.910Z,1.90
2018-12-19T13:28:15.396Z,1.90
2018-12-19T13:30:42.827Z,1.90
2018-12-19T13:33:10.349Z,1.90
2018-12-19T13:35:37.876Z,1.90
2018-12-19T13:38:05.280Z,1.90
2018-12-19T13:40:32.758Z,1.90
2018-12-19T13:43:00.337Z,1.80
2018-12-19T13:45:27.804Z,1.80
2018-12-19T13:47:55.314Z,1.80
2018-12-19T13:50:22.755Z,1.80
2018-12-19T13:52:50.223Z,1.80
2018-12-19T13:55:17.666Z,1.80
2018-12-19T13:57:45.148Z,1.80
2018-12-19T14:00:12.624Z,1.80
2018-12-19T14:02:40.063Z,1.80
2018-12-19T14:05:07.643Z,1.80
2018-12-19T14:07:35.117Z,1.80
2018-12-19T14:10:02.684Z,1.80
2018-12-19T14:12:30.161Z,1.80
2018-12-19T14:14:57.633Z,1.80
2018-12-19T14:17:25.074Z,1.80
2018-12-19T14:19:52.595Z,1.80
2018-12-19T14:22:20.066Z,1.80
2018-12-19T14:24:47.733Z,1.90
2018-12-19T14:27:15.227Z,1.80
2018-12-19T14:29:42.676Z,1.90
2018-12-19T14:32:10.125Z,1.80
2018-12-19T14:34:37.604Z,1.80
2018-12-19T14:37:05.025Z,1.80
2018-12-19T14:39:32.472Z,1.80
2018-12-19T14:41:59.973Z,1.80
2018-12-19T14:44:27.447Z,1.80
2018-12-19T14:46:54.891Z,1.80
2018-12-19T14:49:22.360Z,1.80
2018-12-19T14:51:49.814Z,1.80
2018-12-19T14:54:17.328Z,1.90
2018-12-19T14:56:44.854Z,1.90
2018-12-19T14:59:12.307Z,1.80
2018-12-19T15:01:39.816Z,1.90
2018-12-19T15:04:07.307Z,1.90
2018-12-19T15:06:34.826Z,1.90
2018-12-19T15:09:02.353Z,1.80
2018-12-19T15:11:29.839Z,1.80
2018-12-19T15:13:57.276Z,1.80
2018-12-19T15:16:24.733Z,1.80
2018-12-19T15:18:52.364Z,1.80
2018-12-19T15:21:19.843Z,1.80
2018-12-19T15:23:47.315Z,1.70
2018-12-19T15:26:14.787Z,1.70
2018-12-19T15:28:42.383Z,1.60
2018-12-19T15:31:09.793Z,1.60
2018-12-19T15:33:37.334Z,1.60
2018-12-19T15:36:05.268Z,1.60
2018-12-19T15:38:32.729Z,1.60
2018-12-19T15:41:00.209Z,1.60
2018-12-19T15:43:27.648Z,1.60
2018-12-19T15:45:55.170Z,1.60
2018-12-19T15:48:22.652Z,1.60
2018-12-19T15:50:50.080Z,1.70
2018-12-19T15:53:17.536Z,1.60
2018-12-19T15:55:45.059Z,1.60
2018-12-19T15:58:12.526Z,1.70
2018-12-19T16:00:39.994Z,1.70
2018-12-19T16:03:07.573Z,1.70
2018-12-19T16:05:34.989Z,1.60
2018-12-19T16:08:02.418Z,1.60
2018-12-19T16:10:29.942Z,1.60
2018-12-19T16:12:57.429Z,1.50
2018-12-19T16:15:24.909Z,1.60
2018-12-19T16:17:52.412Z,1.50
2018-12-19T16:20:19.866Z,1.40
2018-12-19T16:22:47.527Z,1.40
2018-12-19T16:25:14.991Z,1.30
2018-12-19T16:27:42.466Z,1.30
2018-12-19T16:30:10.259Z,1.30
2018-12-19T16:32:37.822Z,1.40
2018-12-19T16:35:05.481Z,1.40
2018-12-19T16:37:32.884Z,1.40
2018-12-19T16:40:00.372Z,1.40
2018-12-19T16:42:27.829Z,1.40
2018-12-19T16:44:55.995Z,1.40
2018-12-19T16:47:23.482Z,1.40
2018-12-19T16:49:50.941Z,1.40
2018-12-19T16:52:18.396Z,1.40
2018-12-19T16:54:45.877Z,1.40
2018-12-19T16:57:13.301Z,1.40
2018-12-19T16:59:40.782Z,1.50
2018-12-19T17:02:08.269Z,1.40
2018-12-19T17:04:35.698Z,1.50
2018-12-19T17:07:03.145Z,1.50
2018-12-19T17:09:30.688Z,1.40
2018-12-19T17:11:58.273Z,1.50
2018-12-19T17:14:26.653Z,1.50
2018-12-19T17:16:54.464Z,1.50
2018-12-19T17:19:22.766Z,1.50
2018-12-19T17:21:50.230Z,1.50
2018-12-19T17:24:17.733Z,1.50
2018-12-19T17:26:45.178Z,1.50
2018-12-19T17:29:12.632Z,1.50
2018-12-19T17:31:40.148Z,1.50
2018-12-19T17:34:07.598Z,1.50
2018-12-19T17:36:35.008Z,1.50
2018-12-19T17:39:02.569Z,1.50
2018-12-19T17:41:30.126Z,1.50
2018-12-19T17:43:57.580Z,1.50
2018-12-19T17:46:25.061Z,1.50
2018-12-19T17:48:52.492Z,1.60
2018-12-19T17:51:19.999Z,1.50
2018-12-19T17:53:47.485Z,1.50
2018-12-19T17:56:14.953Z,1.50
2018-12-19T17:58:42.484Z,1.50
2018-12-19T18:01:10.040Z,1.50
2018-12-19T18:03:37.482Z,1.50
2018-12-19T18:06:05.124Z,1.50
2018-12-19T18:08:32.614Z,1.40
2018-12-19T18:11:00.067Z,1.40
2018-12-19T18:13:27.550Z,1.40
2018-12-19T18:15:55.052Z,1.40
2018-12-19T18:18:22.492Z,1.40
2018-12-19T18:20:50.009Z,1.40
2018-12-19T18:23:17.480Z,1.40
2018-12-19T18:25:44.985Z,1.30
2018-12-19T18:28:12.407Z,1.30
2018-12-19T18:30:39.860Z,1.30
2018-12-19T18:33:07.330Z,1.30
2018-12-19T18:35:34.780Z,1.30
2018-12-19T18:38:02.256Z,1.30
2018-12-19T18:40:29.760Z,1.30
2018-12-19T18:42:57.233Z,1.30
2018-12-19T18:45:24.736Z,1.30
2018-12-19T18:47:52.194Z,1.30
2018-12-19T18:50:19.632Z,1.30
2018-12-19T18:52:47.093Z,1.30
2018-12-19T18:55:14.601Z,1.30
2018-12-19T18:57:42.082Z,1.30
2018-12-19T19:00:09.669Z,1.30
2018-12-19T19:02:37.280Z,1.30
2018-12-19T19:05:05.120Z,1.30
2018-12-19T19:07:32.662Z,1.30
2018-12-19T19:10:00.187Z,1.30
2018-12-19T19:12:27.717Z,1.20
2018-12-19T19:14:55.193Z,1.20
2018-12-19T19:17:22.669Z,1.20
2018-12-19T19:19:50.127Z,1.20
2018-12-19T19:22:17.818Z,1.20
2018-12-19T19:24:45.236Z,1.20
2018-12-19T19:27:12.717Z,1.20
2018-12-19T19:29:40.189Z,1.20
2018-12-19T19:32:08.004Z,1.20
2018-12-19T19:34:35.507Z,1.20
2018-12-19T19:37:03.053Z,1.20
2018-12-19T19:39:30.529Z,1.20
2018-12-19T19:41:57.994Z,1.20
2018-12-19T19:44:25.467Z,1.20
2018-12-19T19:46:52.982Z,1.20
2018-12-19T19:49:20.435Z,1.20
2018-12-19T19:51:47.974Z,1.20
2018-12-19T19:54:15.586Z,1.20
2018-12-19T19:56:43.032Z,1.20
2018-12-19T19:59:10.486Z,1.20
2018-12-19T20:01:37.956Z,1.30
2018-12-19T20:04:05.430Z,1.30
2018-12-19T20:06:33.022Z,1.20
2018-12-19T20:09:00.446Z,1.20
2018-12-19T20:11:27.916Z,1.20
2018-12-19T20:13:55.418Z,1.20
2018-12-19T20:16:22.895Z,1.30
2018-12-19T20:18:50.340Z,1.30
2018-12-19T20:21:17.816Z,1.30
2018-12-19T20:23:45.281Z,1.30
2018-12-19T20:26:12.725Z,1.30
2018-12-19T20:28:40.237Z,1.30
2018-12-19T20:31:07.724Z,1.20
2018-12-19T20:33:35.388Z,1.20
2018-12-19T20:36:02.925Z,1.20
2018-12-19T20:38:30.462Z,1.20
2018-12-19T20:40:57.928Z,1.20
2018-12-19T20:43:25.462Z,1.20
2018-12-19T20:45:52.908Z,1.20
2018-12-19T20:48:20.405Z,1.20
2018-12-19T20:50:47.887Z,1.20
2018-12-19T20:53:15.489Z,1.20
2018-12-19T20:55:42.922Z,1.20
2018-12-19T20:58:10.808Z,1.20
2018-12-19T21:00:38.359Z,1.20
2018-12-19T21:03:05.776Z,1.20
2018-12-19T21:05:33.645Z,1.20
2018-12-19T21:08:01.154Z,1.20
2018-12-19T21:10:28.617Z,1.20
2018-12-19T21:12:56.494Z,1.20
2018-12-19T21:15:23.972Z,1.20
2018-12-19T21:17:57.013Z,1.20
2018-12-19T21:20:24.455Z,1.20
2018-12-19T21:22:51.959Z,1.30
2018-12-19T21:25:19.441Z,1.30
2018-12-19T21:27:47.251Z,1.30
2018-12-19T21:30:14.680Z,1.20
2018-12-19T21:32:42.213Z,1.20
2018-12-19T21:35:09.652Z,1.30
2018-12-19T21:37:37.092Z,1.20
2018-12-19T21:40:04.928Z,1.30
2018-12-19T21:42:32.461Z,1.30
2018-12-19T21:44:59.991Z,1.30
2018-12-19T21:47:27.465Z,1.30
2018-12-19T21:49:55.081Z,1.30
2018-12-19T21:52:22.568Z,1.30
2018-12-19T21:54:50.129Z,1.30
2018-12-19T21:57:17.581Z,1.30
2018-12-19T21:59:45.050Z,1.30
2018-12-19T22:02:12.650Z,1.30
2018-12-19T22:04:40.256Z,1.30
2018-12-19T22:07:07.761Z,1.30
2018-12-19T22:09:35.297Z,1.30
2018-12-19T22:12:02.785Z,1.30
2018-12-19T22:14:30.280Z,1.20
2018-12-19T22:17:03.439Z,1.20
2018-12-19T22:19:30.888Z,1.20
2018-12-19T22:21:58.467Z,1.20
2018-12-19T22:24:25.978Z,1.20
2018-12-19T22:26:53.491Z,1.30
2018-12-19T22:29:20.942Z,1.30
2018-12-19T22:31:48.478Z,1.30
2018-12-19T22:34:16.128Z,1.20
2018-12-19T22:36:43.746Z,1.20
2018-12-19T22:39:13.154Z,1.20
2018-12-19T22:41:40.690Z,1.20
2018-12-19T22:44:08.341Z,1.20
2018-12-19T22:46:35.818Z,1.30
2018-12-19T22:49:03.307Z,1.30
2018-12-19T22:51:30.846Z,1.30
2018-12-19T22:53:58.421Z,1.30
2018-12-19T22:56:25.921Z,1.30
2018-12-19T22:58:53.418Z,1.20
2018-12-19T23:01:26.865Z,1.20
2018-12-19T23:04:09.993Z,1.20
2018-12-19T23:06:37.610Z,1.20
2018-12-19T23:09:06.107Z,1.20
2018-12-19T23:11:33.574Z,1.20
2018-12-19T23:14:01.213Z,1.20
2018-12-19T23:16:28.744Z,1.20
2018-12-19T23:18:56.247Z,1.20
2018-12-19T23:21:25.010Z,1.20
2018-12-19T23:23:52.519Z,1.10
2018-12-19T23:26:20.107Z,1.10
2018-12-19T23:28:48.085Z,1.10
2018-12-19T23:31:15.933Z,1.10
2018-12-19T23:33:43.458Z,1.10
2018-12-19T23:36:10.969Z,1.10
2018-12-19T23:38:38.511Z,1.10
2018-12-19T23:41:06.094Z,1.10
2018-12-19T23:43:33.615Z,1.10
2018-12-19T23:46:01.266Z,1.10
2018-12-19T23:48:28.885Z,1.10
2018-12-19T23:50:56.665Z,1.10
2018-12-19T23:53:24.174Z,1.10
2018-12-19T23:55:51.766Z,1.10
2018-12-19T23:58:19.253Z,1.10
